• Join FlightAware (Why Join?)
  • Login
  • US Flag 
09:46PM EDT


 

Airport Tracker/Info


-or-


 

Live Flight TrackerFlight Track Log ✈ AWE1821 ✈ 07-May-2013 ✈ KPHL - KIAH

Flight Track Log - Related Links

Times and Time Zones

All times are in EDT time to prevent confusion due to time zone crossing. See the AWE1821 flight status page for this flight to view local times or setup timezone preferences in your user account.

Time Position Orientation Groundspeed Altitude Reporting Facility
EDT Latitude Longitude Course Direction KTS MPH feet Rate Location/Type
09:48AM 39.8833 -75.2167 270° West 146 168 900  Level Philadelphia TRACON
09:49AM 39.9000 -75.1500 72° East 197 227 2,300 2,040 Climbing Philadelphia TRACON
09:50AM 39.8403 -75.6290 247° West  Level FlightAware Approximate
09:50AM 39.9333 -75.1000 49° Northeast 238 274 5,200  Level Philadelphia TRACON
09:51AM 39.8333 -75.7620 270° West  Level FlightAware Approximate
09:51AM 39.9667 -75.1833 298° West 261 300 7,400  Level Philadelphia TRACON
09:52AM 39.8149 -75.8943 258° West  Level FlightAware Approximate
09:52AM 39.9333 -75.2833 247° West 301 346 9,800  Level Philadelphia TRACON
09:53AM 39.8000 -76.0270 270° West  Level FlightAware Approximate
09:53AM 39.9211 -75.3858 261° West 345 397 10,000  Level New York Center
09:54AM 39.7833 -76.1573 270° West  Level FlightAware Approximate
09:54AM 39.8975 -75.5086 256° West 352 405 10,000  Level New York Center
09:55AM 39.8719 -75.6233 254° West 374 430 10,400 1,080 Climbing New York Center
09:56AM 39.8508 -75.7328 256° West 364 419 12,200 2,280 Climbing New York Center
09:57AM 39.8281 -75.8744 258° West 364 419 15,000 2,400 Climbing New York Center
09:58AM 39.8144 -75.9950 262° West 375 432 17,000 1,860 Climbing New York Center
09:59AM 39.8006 -76.1183 262° West 380 437 18,800 1,740 Climbing New York Center
10:01AM 39.7067 -76.4250 248° West 397 457 22,700 1,680 Climbing Washington Center
10:02AM 39.6514 -76.5592 242° Southwest 397 457 24,400 1,440 Climbing Washington Center
10:03AM 39.5981 -76.6958 243° Southwest 397 457 25,700 1,200 Climbing Washington Center
10:04AM 39.5469 -76.8350 245° Southwest 397 457 26,900 1,140 Climbing Washington Center
10:05AM 39.4911 -76.9739 243° Southwest 432 497 28,100 1,320 Climbing Washington Center
10:06AM 39.4022 -77.0794 223° Southwest 432 497 29,600 1,620 Climbing Washington Center
10:07AM 39.3094 -77.1742 218° Southwest 432 497 31,300 1,620 Climbing Washington Center
10:08AM 39.2206 -77.2661 219° Southwest 427 491 32,800 1,200 Climbing Washington Center
10:09AM 39.1339 -77.3550 219° Southwest 415 478 33,800 840 Climbing Washington Center
10:10AM 39.0364 -77.4569 219° Southwest 410 472 34,600 840 Climbing Washington Center
10:11AM 38.9644 -77.5353 220° Southwest 393 452 35,500 660 Climbing Washington Center
10:12AM 38.8711 -77.6314 219° Southwest 393 452 36,000 240 Climbing Washington Center
10:13AM 38.7883 -77.7142 218° Southwest 406 467 36,000  Level Washington Center
10:14AM 38.6928 -77.8125 219° Southwest 425 489 36,000  Level Washington Center
10:15AM 38.6008 -77.9347 226° Southwest 430 495 36,000  Level Washington Center
10:16AM 38.5253 -78.0625 233° Southwest 447 514 36,000  Level Washington Center
10:17AM 38.4494 -78.1925 233° Southwest 458 527 36,000  Level Washington Center
10:18AM 38.3736 -78.3194 233° Southwest 458 527 36,000  Level Washington Center
10:19AM 38.2978 -78.4492 233° Southwest 458 527 36,000  Level Washington Center
10:20AM 38.2344 -78.5603 234° Southwest 453 521 36,000  Level Washington Center
10:21AM 38.1606 -78.6867 233° Southwest 448 516 36,000  Level Washington Center
10:22AM 38.0842 -78.8128 232° Southwest 448 516 36,000  Level Washington Center
10:23AM 38.0056 -78.9414 232° Southwest 448 516 36,000  Level Washington Center
10:24AM 37.9222 -79.0797 233° Southwest 448 516 36,000  Level Washington Center
10:25AM 37.8517 -79.2133 236° Southwest 453 521 36,000  Level Washington Center
10:26AM 37.7847 -79.3519 239° Southwest 460 529 36,000  Level Washington Center
10:27AM 37.7139 -79.4850 236° Southwest 466 536 36,000  Level Washington Center
10:28AM 37.6533 -79.6103 239° Southwest 466 536 36,000  Level Washington Center
10:29AM 37.5753 -79.7608 237° Southwest 472 543 36,000  Level Washington Center
10:31AM 37.4397 -80.0297 238° Southwest 480 552 36,000  Level Atlanta Center
10:32AM 37.3711 -80.1611 237° Southwest 470 541 36,000  Level Atlanta Center
10:33AM 37.3022 -80.2950 237° Southwest 470 541 36,000  Level Atlanta Center
10:34AM 37.2336 -80.4339 238° Southwest 470 541 36,000  Level Atlanta Center
10:35AM 37.1586 -80.5806 237° Southwest 470 541 36,000  Level Atlanta Center
10:36AM 37.0914 -80.7186 239° Southwest 470 541 36,000  Level Atlanta Center
10:37AM 37.0239 -80.8489 237° Southwest 470 541 36,000  Level Atlanta Center
10:38AM 36.9544 -80.9817 237° Southwest 470 541 36,000  Level Atlanta Center
10:39AM 36.8969 -81.0981 238° Southwest 464 534 36,000  Level Atlanta Center
10:40AM 36.8292 -81.2328 238° Southwest 464 534 36,000  Level Atlanta Center
10:41AM 36.7592 -81.3725 238° Southwest 451 519 36,000  Level Atlanta Center
10:42AM 36.6911 -81.5042 237° Southwest 451 519 36,000  Level Atlanta Center
10:43AM 36.6228 -81.6333 237° Southwest 458 527 36,000  Level Atlanta Center
10:44AM 36.5544 -81.7644 237° Southwest 453 521 36,000  Level Atlanta Center
10:45AM 36.4858 -81.8956 237° Southwest 453 521 36,000  Level Atlanta Center
10:46AM 36.4253 -82.0106 237° Southwest 453 521 36,000  Level Atlanta Center
10:47AM 36.3564 -82.1439 237° Southwest 453 521 36,000  Level Atlanta Center
10:48AM 36.2875 -82.2717 236° Southwest 458 527 36,000  Level Atlanta Center
10:49AM 36.2183 -82.4019 237° Southwest 458 527 36,000  Level Atlanta Center
10:50AM 36.1492 -82.5319 237° Southwest 458 527 36,000  Level Atlanta Center
10:51AM 36.0819 -82.6592 237° Southwest 458 527 36,000  Level Atlanta Center
10:52AM 36.0122 -82.7911 237° Southwest 458 527 36,000  Level Atlanta Center
10:53AM 35.9425 -82.9178 236° Southwest 458 527 36,000  Level Atlanta Center
10:54AM 35.8728 -83.0497 237° Southwest 463 533 36,000  Level Atlanta Center
10:55AM 35.8008 -83.1786 235° Southwest 463 533 36,000  Level Atlanta Center
10:56AM 35.7244 -83.3225 237° Southwest 457 526 36,000  Level Atlanta Center
10:57AM 35.6542 -83.4508 236° Southwest 457 526 36,100 300 Climbing Atlanta Center
10:58AM 35.5964 -83.5536 235° Southwest 462 532 36,600 600 Climbing Atlanta Center
10:59AM 35.5194 -83.6917 236° Southwest 457 526 37,400 660 Climbing Atlanta Center
11:00AM 35.4511 -83.8194 237° Southwest 457 526 38,000 300 Climbing Atlanta Center
11:01AM 35.3803 -83.9469 236° Southwest 457 526 38,000  Level Atlanta Center
11:02AM 35.3114 -84.0719 236° Southwest 457 526 38,000  Level Atlanta Center
11:03AM 35.2425 -84.1989 236° Southwest 457 526 38,000  Level Atlanta Center
11:04AM 35.1692 -84.3233 234° Southwest 457 526 38,000  Level Atlanta Center
11:05AM 35.1022 -84.4475 237° Southwest 457 526 38,000  Level Atlanta Center
11:06AM 35.0286 -84.5764 235° Southwest 457 526 38,000  Level Atlanta Center
11:07AM 34.9550 -84.7053 235° Southwest 462 532 38,000  Level Atlanta Center
11:08AM 34.8833 -84.8289 235° Southwest 462 532 38,000  Level Atlanta Center
11:09AM 34.8114 -84.9572 236° Southwest 462 532 38,000  Level Atlanta Center
11:10AM 34.7417 -85.0803 235° Southwest 457 526 38,000  Level Atlanta Center
11:11AM 34.6717 -85.2056 236° Southwest 457 526 38,000  Level Atlanta Center
11:12AM 34.5994 -85.3283 234° Southwest 457 526 38,000  Level Atlanta Center
11:13AM 34.5272 -85.4508 234° Southwest 452 520 38,000  Level Atlanta Center
11:14AM 34.4589 -85.5731 236° Southwest 452 520 38,000  Level Atlanta Center
11:15AM 34.3883 -85.6900 234° Southwest 447 514 38,000  Level Atlanta Center
11:16AM 34.3306 -85.7972 237° Southwest 442 509 38,000  Level Atlanta Center
11:17AM 34.2536 -85.9211 233° Southwest 436 502 38,000  Level Atlanta Center
11:18AM 34.1850 -86.0353 234° Southwest 431 496 38,000  Level Atlanta Center
11:19AM 34.1142 -86.1564 235° Southwest 431 496 38,000  Level Atlanta Center
11:20AM 34.0433 -86.2725 234° Southwest 436 502 38,000  Level Atlanta Center
11:21AM 33.9700 -86.3933 234° Southwest 441 507 38,000  Level Atlanta Center
11:22AM 33.9031 -86.5092 235° Southwest 441 507 38,000  Level Atlanta Center
11:23AM 33.8339 -86.6272 235° Southwest 441 507 38,000  Level Atlanta Center
11:24AM 33.7625 -86.7425 233° Southwest 441 507 38,000  Level Atlanta Center
11:25AM 33.6931 -86.8600 235° Southwest 441 507 38,000  Level Atlanta Center
11:26AM 33.6403 -86.9806 242° Southwest 436 502 38,000  Level Atlanta Center
11:27AM 33.5975 -87.1039 247° West 413 475 38,000  Level Atlanta Center
11:30AM 33.4947 -87.4078 248° West 400 460 38,000  Level Memphis Center
11:31AM 33.4517 -87.5289 247° West 400 460 38,000  Level Memphis Center
11:32AM 33.4106 -87.6547 249° West 400 460 38,000  Level Memphis Center
11:33AM 33.3672 -87.7778 247° West 400 460 38,000  Level Memphis Center
11:34AM 33.3219 -87.9058 247° West 405 466 38,000  Level Memphis Center
11:35AM 33.2786 -88.0339 248° West 410 472 38,000  Level Memphis Center
11:36AM 33.2347 -88.1592 247° West 415 478 38,000  Level Memphis Center
11:37AM 33.1914 -88.2969 249° West 415 478 38,000  Level Memphis Center
11:38AM 33.1453 -88.4194 246° West 415 478 38,000  Level Memphis Center
11:39AM 33.0992 -88.5494 247° West 415 478 38,000  Level Memphis Center
11:40AM 33.0569 -88.6717 248° West 415 478 38,000  Level Memphis Center
11:41AM 33.0106 -88.7964 246° West 415 478 38,000  Level Memphis Center
11:42AM 32.9664 -88.9211 247° West 415 478 38,000  Level Memphis Center
11:43AM 32.9239 -89.0431 247° West 415 478 38,000  Level Memphis Center
11:44AM 32.8769 -89.1675 246° West 410 472 38,000  Level Memphis Center
11:45AM 32.8322 -89.2942 247° West 410 472 38,000  Level Memphis Center
11:46AM 32.7872 -89.4158 246° West 410 472 38,000  Level Memphis Center
11:47AM 32.7403 -89.5372 245° Southwest 415 478 38,000  Level Memphis Center
11:48AM 32.6950 -89.6636 247° West 415 478 38,000  Level Memphis Center
11:49AM 32.6497 -89.7872 247° West 415 478 38,000  Level Memphis Center
11:50AM 32.6042 -89.9083 246° West 415 478 38,000  Level Memphis Center
11:51AM 32.5586 -90.0294 246° West 415 478 38,000  Level Memphis Center
11:52AM 32.5131 -90.1528 246° West 415 478 38,000  Level Memphis Center
11:53AM 32.4547 -90.2661 239° Southwest 415 478 38,000  Level Memphis Center
11:54AM 32.3942 -90.3819 238° Southwest 415 478 38,000  Level Memphis Center
11:55AM 32.3336 -90.4975 238° Southwest 415 478 38,000  Level Memphis Center
11:56AM 32.2731 -90.6128 238° Southwest 415 478 38,000  Level Memphis Center
11:57AM 32.2142 -90.7281 239° Southwest 415 478 38,000  Level Memphis Center
11:58AM 32.1292 -90.8906 238° Southwest 412 474 38,000  Level Houston Center
11:59AM 32.0681 -91.0056 238° Southwest 414 476 38,000  Level Houston Center
12:00PM 31.9933 -91.1422 237° Southwest 414 476 38,000  Level Houston Center
12:02PM 31.9322 -91.2572 238° Southwest 414 476 38,000  Level Houston Center
12:03PM 31.8708 -91.3717 238° Southwest 414 476 38,000  Level Houston Center
12:04PM 31.8094 -91.4867 238° Southwest 414 476 38,000  Level Houston Center
12:05PM 31.7478 -91.6011 238° Southwest 415 478 38,000  Level Houston Center
12:06PM 31.6850 -91.7178 238° Southwest 422 486 38,000  Level Houston Center
12:07PM 31.6103 -91.8558 238° Southwest 418 481 38,000  Level Houston Center
12:08PM 31.5500 -91.9692 238° Southwest 410 472 38,000  Level Houston Center
12:09PM 31.4892 -92.0753 236° Southwest 421 484 38,000  Level Houston Center
12:10PM 31.4136 -92.2136 237° Southwest 422 486 38,000  Level Houston Center
12:11PM 31.3514 -92.3281 238° Southwest 420 483 38,000  Level Houston Center
12:12PM 31.2872 -92.4444 237° Southwest 424 488 38,000  Level Houston Center
12:13PM 31.2239 -92.5614 238° Southwest 426 490 38,000  Level Houston Center
12:14PM 31.1597 -92.6742 236° Southwest 422 486 38,000  Level Houston Center
12:15PM 31.0964 -92.7883 237° Southwest 421 484 38,000  Level Houston Center
12:16PM 31.0192 -92.9242 236° Southwest 421 484 38,000  Level Houston Center
12:17PM 30.9544 -93.0392 237° Southwest 424 488 38,000 -1,200 Level Houston Center
12:18PM 30.8906 -93.1533 237° Southwest 424 488 35,600 -2,280 Descending Houston Center
12:19PM 30.8272 -93.2644 236° Southwest 416 479 33,400 -2,160 Descending Houston Center
12:20PM 30.7633 -93.3786 237° Southwest 421 484 31,200 -2,340 Descending Houston Center
12:21PM 30.6869 -93.5133 237° Southwest 422 486 28,600 -2,340 Descending Houston Center
12:22PM 30.6236 -93.6236 236° Southwest 418 481 26,400 -2,100 Descending Houston Center
12:23PM 30.5631 -93.7308 237° Southwest 407 468 24,300 -2,040 Descending Houston Center
12:24PM 30.5033 -93.8333 236° Southwest 392 451 22,200 -2,160 Descending Houston Center
12:25PM 30.4339 -93.9547 236° Southwest 383 441 19,800 -2,160 Descending Houston Center
12:26PM 30.3772 -94.0528 236° Southwest 373 429 17,700 -2,040 Descending Houston Center
12:27PM 30.3208 -94.1500 236° Southwest 367 422 15,700 -2,160 Descending Houston Center
12:29PM 30.2464 -94.2783 236° Southwest 348 400 12,700 -1,860 Descending Houston Center
12:29PM 30.2131 -94.3356 236° Southwest 346 398 11,900 -480 Descending Houston Center
12:31PM 30.1864 -94.4342 253° West 323 372 11,900  Level Houston Center
12:32PM 30.1678 -94.5472 259° West 319 367 12,000 -540 Climbing Houston Center
12:33PM 30.1453 -94.6433 255° West 312 359 10,900 -1,500 Descending Houston Center
12:34PM 30.1022 -94.7186 237° Southwest 283 326 8,900 -1,740 Descending Houston Center
12:35PM 30.0764 -94.8014 250° West 273 314 7,400 -1,800 Descending Houston Center
12:36PM 30.0519 -94.9008 254° West 272 313 5,300 -1,680 Descending Houston Center
12:37PM 30.0311 -94.9839 254° West 271 312 4,000 -1,020 Descending Houston Center
12:38PM 30.0119 -95.0606 254° West 258 297 3,300 -540 Descending Houston Center
12:39PM 29.9956 -95.1264 254° West 234 269 2,900 -540 Descending Houston Center
12:40PM 29.9933 -95.1922 268° West 217 250 2,300 -840 Descending Houston Center
12:41PM 29.9936 -95.2597 270° West 193 222 1,200 -900 Descending Houston Center
12:42PM 29.9942 -95.3025 271° West 159 183 500 -420 Descending Houston Center
12:43PM 29.9950 -95.3444 271° West 154 177 400 -120 Descending Houston Center